Terminal Aerodrome Forecast
Issued by NWS Sterling, VA

Current Version | Previous Version | Text Only | Print | Product List | Glossary Off
Versions: 1 2 3 4 5 6 7 8 9 10 11 12 13 14 15 16 17 18 19 20 21 22 23 24

000
FTUS41 KLWX 180800 AAA
TAFDCA
TAF AMD
KDCA 180849Z 1809/1906 30010KT P6SM BKN060
     FM181100 30009KT P6SM SCT140
     FM181600 30011G19KT P6SM SCT200
     FM182100 30009KT P6SM SCT200
     FM190300 31007KT P6SM BKN110=

USA.gov is the U.S. government's official web portal to all federal, state and local government web resources and services.